Time;durP1;ratioP1;P1;durP2;ratioP2;P2;SDS_P1;SDS_P2;PMS_P1;PMS_P2;Temp;Humidity;BMP_temperature;BMP_pressure;BME280_temperature;BME280_humidity;BME280_pressure;Samples;Min_cycle;Max_cycle;Signal;HPM_P1;HPM_P2
2023/09/21 00:01:03;;;;;;;5.63;2.13;;;16.70;99.90;;;;;;5011411;28;20071;-85
2023/09/21 00:03:49;;;;;;;6.90;2.28;;;16.70;99.90;;;;;;5012063;28;20089;-84
2023/09/21 00:06:36;;;;;;;4.90;1.88;;;16.70;99.90;;;;;;5012314;28;20128;-90
2023/09/21 00:09:24;;;;;;;7.95;2.38;;;16.70;99.90;;;;;;5011531;28;20050;-88
2023/09/21 00:12:10;;;;;;;6.05;2.53;;;16.70;99.90;;;;;;5011063;28;20061;-90
2023/09/21 00:14:56;;;;;;;6.55;2.75;;;16.80;99.90;;;;;;5012991;28;20064;-81
2023/09/21 00:17:44;;;;;;;7.10;2.30;;;16.80;99.90;;;;;;5010335;28;20057;-79
2023/09/21 00:20:42;;;;;;;5.97;2.10;;;16.80;99.90;;;;;;5012085;28;20093;-78
2023/09/21 00:23:31;;;;;;;7.97;2.00;;;16.80;99.90;;;;;;5011436;28;20060;-79
2023/09/21 00:26:17;;;;;;;9.02;2.28;;;16.80;99.90;;;;;;5009494;28;20061;-83
2023/09/21 00:29:05;;;;;;;6.18;2.30;;;16.80;99.90;;;;;;5012233;28;20046;-84
2023/09/21 00:31:51;;;;;;;4.97;1.75;;;16.80;99.90;;;;;;5011176;28;20109;-81
2023/09/21 00:34:37;;;;;;;5.28;2.40;;;16.80;99.90;;;;;;4999051;28;20088;-78
2023/09/21 00:37:23;;;;;;;6.15;2.47;;;16.80;99.90;;;;;;5020151;28;20049;-76
2023/09/21 00:40:16;;;;;;;5.40;2.20;;;16.80;99.90;;;;;;5021945;28;20056;-78
2023/09/21 00:43:06;;;;;;;6.00;2.08;;;16.80;99.90;;;;;;5019877;28;20054;-78
2023/09/21 00:45:54;;;;;;;5.15;2.35;;;16.80;99.90;;;;;;5010400;28;20053;-78
2023/09/21 00:48:42;;;;;;;5.85;2.30;;;16.90;99.90;;;;;;4995923;28;20140;-77
2023/09/21 00:51:29;;;;;;;6.30;2.10;;;16.90;99.90;;;;;;5010733;28;20094;-77
2023/09/21 00:54:15;;;;;;;5.75;1.98;;;16.90;99.90;;;;;;5009878;28;20061;-78
2023/09/21 00:57:01;;;;;;;7.38;1.95;;;16.90;99.90;;;;;;5012164;28;20405;-79
2023/09/21 00:59:47;;;;;;;6.28;1.88;;;16.90;99.90;;;;;;4997120;28;20061;-78
2023/09/21 01:02:34;;;;;;;8.90;2.72;;;17.00;99.90;;;;;;5010028;28;20143;-77
2023/09/21 01:05:22;;;;;;;7.53;2.90;;;17.00;99.90;;;;;;5011875;28;20050;-79
2023/09/21 01:08:13;;;;;;;5.13;1.88;;;17.00;99.90;;;;;;5010026;28;20070;-77
2023/09/21 01:11:06;;;;;;;4.43;1.90;;;17.00;99.90;;;;;;5010534;28;20049;-80
2023/09/21 01:13:52;;;;;;;8.00;1.73;;;17.00;99.90;;;;;;5009407;28;20529;-76
2023/09/21 01:16:38;;;;;;;6.50;2.42;;;17.00;99.90;;;;;;5010104;28;20054;-79
2023/09/21 01:19:24;;;;;;;9.50;2.70;;;17.00;99.90;;;;;;5009788;28;20120;-79
2023/09/21 01:22:12;;;;;;;4.53;1.75;;;17.00;99.90;;;;;;5009921;28;20058;-77
2023/09/21 01:24:57;;;;;;;6.13;2.38;;;17.10;99.90;;;;;;5009677;28;20091;-77
2023/09/21 01:27:43;;;;;;;5.80;2.08;;;17.10;99.90;;;;;;5011634;28;20061;-78
2023/09/21 01:30:30;;;;;;;6.13;2.13;;;17.10;99.90;;;;;;5009243;28;20529;-84
2023/09/21 01:33:17;;;;;;;5.63;2.03;;;17.20;99.90;;;;;;5011112;28;20046;-77
2023/09/21 01:36:08;;;;;;;8.80;1.95;;;17.10;99.90;;;;;;4995962;28;20049;-79
2023/09/21 01:38:56;;;;;;;6.70;1.83;;;17.20;99.90;;;;;;5014141;28;20060;-79
2023/09/21 01:41:43;;;;;;;7.95;2.58;;;17.30;99.90;;;;;;5015769;28;20054;-78
2023/09/21 01:44:30;;;;;;;8.57;2.20;;;17.30;99.90;;;;;;4998978;28;20050;-77
2023/09/21 01:47:20;;;;;;;7.45;1.63;;;17.30;99.90;;;;;;5000048;28;20058;-82
2023/09/21 01:50:11;;;;;;;5.07;1.77;;;17.40;99.90;;;;;;5015771;28;20054;-82
2023/09/21 01:52:57;;;;;;;9.25;2.40;;;17.40;99.90;;;;;;5013368;28;20054;-78
2023/09/21 01:55:47;;;;;;;4.43;1.95;;;17.40;99.90;;;;;;5013088;28;20111;-80
2023/09/21 01:58:33;;;;;;;9.48;1.70;;;17.40;99.90;;;;;;5013363;28;20056;-86
2023/09/21 02:01:19;;;;;;;4.85;1.77;;;17.40;99.90;;;;;;5014340;28;20797;-90
2023/09/21 02:04:05;;;;;;;5.20;2.00;;;17.60;99.90;;;;;;5012918;28;20053;-79
2023/09/21 02:06:51;;;;;;;5.95;1.90;;;17.60;99.90;;;;;;5012433;28;20104;-88
2023/09/21 02:09:37;;;;;;;5.85;1.83;;;17.60;99.90;;;;;;5014767;28;20517;-79
2023/09/21 02:12:24;;;;;;;6.32;1.77;;;17.60;99.90;;;;;;5014704;28;20508;-83
2023/09/21 02:15:10;;;;;;;4.00;1.95;;;17.60;99.90;;;;;;5014931;28;20112;-77
2023/09/21 02:17:56;;;;;;;7.95;2.10;;;17.60;99.90;;;;;;5012007;28;20501;-78
2023/09/21 02:20:44;;;;;;;4.72;1.70;;;17.50;99.90;;;;;;5014228;28;20046;-78
2023/09/21 02:23:30;;;;;;;8.07;2.13;;;17.50;99.90;;;;;;4998154;28;20116;-78
2023/09/21 02:26:16;;;;;;;6.45;1.75;;;17.60;99.90;;;;;;5012738;28;20133;-79
2023/09/21 02:29:04;;;;;;;5.38;1.50;;;17.60;99.90;;;;;;5013476;28;20188;-79
2023/09/21 02:31:50;;;;;;;7.00;1.90;;;17.60;99.90;;;;;;5012405;28;20167;-80
2023/09/21 02:34:37;;;;;;;6.05;2.17;;;17.60;99.90;;;;;;5014275;28;20068;-83
2023/09/21 02:37:23;;;;;;;3.97;1.80;;;17.60;99.90;;;;;;5013145;28;20469;-80
2023/09/21 02:40:14;;;;;;;5.13;1.88;;;17.60;99.90;;;;;;5014663;28;20058;-79
2023/09/21 02:43:00;;;;;;;4.95;1.77;;;17.60;99.90;;;;;;5014411;28;20049;-78
2023/09/21 02:45:49;;;;;;;5.88;1.65;;;17.60;99.90;;;;;;4998596;28;20057;-80
2023/09/21 02:48:35;;;;;;;5.43;1.80;;;17.60;99.90;;;;;;5012158;28;20669;-80
2023/09/21 02:51:22;;;;;;;5.95;1.70;;;17.60;99.90;;;;;;5013262;28;20053;-79
2023/09/21 02:54:11;;;;;;;4.03;1.60;;;17.60;99.90;;;;;;5013952;28;20081;-79
2023/09/21 02:56:57;;;;;;;4.93;1.83;;;17.60;99.90;;;;;;5012034;28;20053;-81
2023/09/21 02:59:43;;;;;;;3.55;1.60;;;17.60;99.90;;;;;;5012918;28;20054;-77
2023/09/21 03:02:29;;;;;;;4.95;1.70;;;17.60;99.90;;;;;;5014264;28;20045;-78
2023/09/21 03:05:18;;;;;;;5.10;1.88;;;17.70;99.90;;;;;;5013749;28;20049;-80
2023/09/21 03:08:07;;;;;;;3.95;1.67;;;17.70;99.90;;;;;;5013023;28;20140;-83
2023/09/21 03:10:54;;;;;;;6.47;1.67;;;17.70;99.90;;;;;;5012584;28;20145;-80
2023/09/21 03:13:40;;;;;;;3.85;1.80;;;17.70;99.90;;;;;;5011230;28;20081;-80
2023/09/21 03:16:28;;;;;;;4.65;1.70;;;17.80;99.90;;;;;;5012555;28;20494;-83
2023/09/21 03:19:15;;;;;;;8.45;1.98;;;17.80;99.90;;;;;;5012604;28;20050;-78
2023/09/21 03:22:01;;;;;;;6.45;1.63;;;17.80;99.90;;;;;;4998027;28;20054;-78
2023/09/21 03:24:48;;;;;;;4.75;1.67;;;17.90;99.90;;;;;;5013788;28;20413;-78
2023/09/21 03:27:34;;;;;;;8.27;2.25;;;17.90;99.90;;;;;;5013024;28;20061;-82
2023/09/21 03:30:23;;;;;;;6.03;2.03;;;17.80;99.90;;;;;;5016972;28;20062;-78
2023/09/21 03:33:10;;;;;;;4.18;1.90;;;17.90;99.90;;;;;;5014178;28;20103;-87
2023/09/21 03:35:56;;;;;;;6.88;1.92;;;17.90;99.90;;;;;;5017366;28;20049;-83
2023/09/21 03:38:42;;;;;;;5.10;1.88;;;17.90;99.90;;;;;;5032627;28;20049;-86
2023/09/21 03:41:28;;;;;;;5.82;1.60;;;17.90;99.90;;;;;;5031710;28;20533;-82
2023/09/21 03:44:14;;;;;;;5.32;1.50;;;17.90;99.90;;;;;;5032468;28;20049;-83
2023/09/21 03:47:00;;;;;;;7.30;2.08;;;17.90;99.90;;;;;;5031786;28;20056;-80
2023/09/21 03:49:46;;;;;;;6.03;1.80;;;17.90;99.90;;;;;;5014207;28;20057;-78
2023/09/21 03:52:33;;;;;;;5.20;2.08;;;17.90;99.90;;;;;;5031690;28;20777;-82
2023/09/21 03:55:20;;;;;;;5.95;1.75;;;17.90;99.90;;;;;;5031840;28;20088;-81
2023/09/21 03:58:07;;;;;;;4.10;1.83;;;17.90;99.90;;;;;;5032736;28;20053;-79
2023/09/21 04:00:54;;;;;;;4.75;2.13;;;17.90;99.90;;;;;;5014224;28;20060;-80
2023/09/21 04:03:40;;;;;;;4.78;1.80;;;17.90;99.90;;;;;;5001548;28;20057;-80
2023/09/21 04:06:26;;;;;;;3.72;1.60;;;17.90;99.90;;;;;;5013638;28;20045;-88
2023/09/21 04:09:12;;;;;;;5.50;1.92;;;17.90;99.90;;;;;;5014621;28;20103;-84
2023/09/21 04:12:00;;;;;;;5.88;2.03;;;17.90;99.90;;;;;;5032419;28;20136;-79
2023/09/21 04:14:46;;;;;;;6.90;2.08;;;17.90;99.90;;;;;;5013877;28;20076;-87
2023/09/21 04:17:32;;;;;;;4.28;1.98;;;17.90;99.90;;;;;;5031750;28;20041;-77
2023/09/21 04:20:19;;;;;;;6.82;2.03;;;17.90;99.90;;;;;;5014438;28;20099;-84
2023/09/21 04:23:05;;;;;;;4.57;1.77;;;18.00;99.90;;;;;;5013962;28;20115;-83
2023/09/21 04:25:51;;;;;;;5.13;1.75;;;18.00;99.90;;;;;;5014372;28;20061;-81
2023/09/21 04:28:37;;;;;;;4.63;2.08;;;18.00;99.90;;;;;;5017656;28;20057;-82
2023/09/21 04:31:23;;;;;;;7.45;1.80;;;18.10;99.90;;;;;;5030822;28;20061;-79
2023/09/21 04:34:10;;;;;;;6.65;1.83;;;18.00;99.90;;;;;;5014327;28;20053;-81
2023/09/21 04:36:56;;;;;;;5.43;2.08;;;18.10;99.90;;;;;;5015001;28;20046;-79
2023/09/21 04:39:42;;;;;;;5.50;2.65;;;18.10;99.90;;;;;;5014069;28;20485;-84
2023/09/21 04:42:29;;;;;;;4.97;1.35;;;18.00;99.90;;;;;;5014178;28;20061;-87
2023/09/21 04:45:18;;;;;;;6.75;2.40;;;17.90;99.90;;;;;;5014149;28;20050;-84
2023/09/21 04:48:04;;;;;;;4.40;1.65;;;17.90;99.90;;;;;;5001384;28;20452;-82
2023/09/21 04:50:50;;;;;;;8.48;1.83;;;17.80;99.90;;;;;;5015018;28;20468;-81
2023/09/21 04:53:37;;;;;;;4.95;1.98;;;17.80;99.90;;;;;;5017509;28;20060;-91
2023/09/21 04:56:23;;;;;;;5.28;2.20;;;17.70;99.90;;;;;;5032126;28;20045;-91
2023/09/21 04:59:09;;;;;;;5.90;2.80;;;17.70;99.90;;;;;;5014010;28;20551;-91
2023/09/21 05:01:55;;;;;;;4.53;1.80;;;17.70;99.90;;;;;;5013690;28;20148;-92
2023/09/21 05:04:41;;;;;;;5.80;1.80;;;17.60;99.90;;;;;;5000595;28;20087;-90
2023/09/21 05:07:28;;;;;;;7.18;1.88;;;17.60;99.90;;;;;;4999937;28;20053;-92
2023/09/21 05:10:14;;;;;;;8.40;2.63;;;17.60;99.90;;;;;;5013353;28;20099;-93
2023/09/21 05:13:00;;;;;;;6.68;2.22;;;17.60;99.90;;;;;;5013211;28;20105;-87
2023/09/21 05:15:48;;;;;;;5.53;1.83;;;17.60;99.90;;;;;;5013417;28;20061;-91
2023/09/21 05:18:34;;;;;;;5.93;2.10;;;17.60;99.90;;;;;;5032740;28;20122;-92
2023/09/21 05:21:20;;;;;;;4.80;2.15;;;17.70;99.90;;;;;;5014517;28;20064;-88
2023/09/21 05:24:07;;;;;;;4.78;1.75;;;17.60;99.90;;;;;;5001666;28;20053;-92
2023/09/21 05:26:53;;;;;;;4.68;2.03;;;17.60;99.90;;;;;;5014141;28;20140;-78
2023/09/21 05:29:40;;;;;;;7.63;1.83;;;17.60;99.90;;;;;;5013044;28;20053;-77
2023/09/21 05:32:26;;;;;;;5.25;1.50;;;17.60;99.90;;;;;;5012578;28;20488;-78
2023/09/21 05:35:16;;;;;;;4.00;2.20;;;17.60;99.90;;;;;;5031297;28;20152;-85
2023/09/21 05:38:05;;;;;;;6.88;1.88;;;17.60;99.90;;;;;;5031748;28;20041;-79
2023/09/21 05:40:51;;;;;;;8.63;2.33;;;17.60;99.90;;;;;;5012934;28;20060;-77
2023/09/21 05:43:37;;;;;;;8.68;2.22;;;17.50;99.90;;;;;;5030957;28;20048;-77
2023/09/21 05:46:23;;;;;;;7.00;2.33;;;17.50;99.90;;;;;;5013354;28;20502;-77
2023/09/21 05:49:11;;;;;;;5.88;1.90;;;17.60;99.90;;;;;;5029306;28;20120;-78
2023/09/21 05:51:59;;;;;;;4.45;1.90;;;17.60;99.90;;;;;;5015709;28;20136;-77
2023/09/21 05:54:45;;;;;;;4.13;1.63;;;17.60;99.90;;;;;;5012291;28;20053;-88
2023/09/21 05:57:31;;;;;;;5.15;1.70;;;17.60;99.90;;;;;;5013166;28;20056;-79
2023/09/21 06:00:18;;;;;;;6.10;1.80;;;17.60;99.90;;;;;;4999588;28;20053;-87
2023/09/21 06:03:06;;;;;;;5.60;1.98;;;17.60;99.90;;;;;;5032083;28;20045;-82
2023/09/21 06:05:52;;;;;;;6.20;1.60;;;17.60;99.90;;;;;;5030795;28;20077;-77
2023/09/21 06:08:38;;;;;;;5.43;2.00;;;17.60;99.90;;;;;;5038294;28;20159;-78
2023/09/21 06:11:25;;;;;;;5.90;1.92;;;17.60;99.90;;;;;;5015768;28;20532;-77
2023/09/21 06:14:11;;;;;;;7.13;1.98;;;17.50;99.90;;;;;;5032945;28;20045;-77
2023/09/21 06:16:57;;;;;;;5.60;1.90;;;17.50;99.90;;;;;;5012879;28;20061;-76
2023/09/21 06:19:44;;;;;;;5.65;2.20;;;17.50;99.90;;;;;;5030035;28;20124;-78
2023/09/21 06:22:31;;;;;;;7.15;2.13;;;17.50;99.90;;;;;;4999605;28;20049;-80
2023/09/21 06:25:20;;;;;;;7.55;2.20;;;17.40;99.90;;;;;;5003011;28;20486;-78
2023/09/21 06:28:06;;;;;;;8.45;3.30;;;17.40;99.90;;;;;;5002899;28;20115;-78
2023/09/21 06:30:52;;;;;;;5.22;1.80;;;17.30;99.90;;;;;;5015580;28;20085;-79
2023/09/21 06:33:38;;;;;;;7.30;2.55;;;17.20;99.90;;;;;;5015312;28;20100;-78
2023/09/21 06:36:29;;;;;;;4.88;2.20;;;17.20;99.90;;;;;;5033106;28;20060;-78
2023/09/21 06:39:16;;;;;;;5.78;2.10;;;17.20;99.90;;;;;;5034256;28;20126;-78
2023/09/21 06:42:02;;;;;;;4.55;1.70;;;17.10;99.90;;;;;;5014939;28;20050;-78
2023/09/21 06:44:54;;;;;;;6.78;2.33;;;17.10;99.90;;;;;;5032015;28;20647;-78
2023/09/21 06:47:42;;;;;;;4.97;1.75;;;17.00;99.90;;;;;;5032799;28;20049;-79
2023/09/21 06:50:28;;;;;;;5.53;2.08;;;17.00;99.90;;;;;;5032746;28;20049;-79
2023/09/21 06:53:15;;;;;;;5.95;2.00;;;17.00;99.90;;;;;;5033855;28;20037;-79
2023/09/21 06:56:01;;;;;;;10.43;1.92;;;17.00;99.90;;;;;;5033330;28;20053;-78
2023/09/21 06:58:47;;;;;;;5.68;2.45;;;17.00;99.90;;;;;;5015883;28;20055;-79
2023/09/21 07:01:34;;;;;;;5.93;2.10;;;16.90;99.90;;;;;;5015575;28;20104;-79
2023/09/21 07:04:21;;;;;;;5.68;1.98;;;16.90;99.90;;;;;;5002462;28;20049;-81
2023/09/21 07:07:07;;;;;;;4.72;2.38;;;17.00;99.90;;;;;;5019416;28;20065;-78
2023/09/21 07:09:54;;;;;;;6.35;2.65;;;16.90;99.90;;;;;;5033500;28;20076;-79
2023/09/21 07:12:40;;;;;;;7.35;2.13;;;16.90;99.90;;;;;;5033410;28;20123;-80
2023/09/21 07:15:28;;;;;;;4.70;2.00;;;17.00;99.90;;;;;;5033351;28;20103;-80
2023/09/21 07:18:14;;;;;;;4.68;2.40;;;17.00;99.90;;;;;;5015351;28;20045;-77
2023/09/21 07:21:00;;;;;;;8.35;2.53;;;17.00;99.90;;;;;;5033284;28;20064;-80
2023/09/21 07:23:46;;;;;;;8.27;2.58;;;17.00;99.90;;;;;;5019056;28;20141;-86
2023/09/21 07:26:33;;;;;;;5.38;2.38;;;17.00;99.90;;;;;;5002439;28;20050;-85
2023/09/21 07:29:19;;;;;;;6.82;2.85;;;16.90;99.90;;;;;;5015497;28;20057;-79
2023/09/21 07:32:08;;;;;;;4.95;2.50;;;16.90;99.90;;;;;;5016833;28;20139;-83
2023/09/21 07:34:55;;;;;;;6.53;2.70;;;16.90;99.90;;;;;;5032022;28;20103;-95
2023/09/21 07:37:46;;;;;;;5.20;2.53;;;16.90;99.90;;;;;;5034182;28;20052;-78
2023/09/21 07:40:32;;;;;;;10.32;2.33;;;16.80;99.90;;;;;;5018050;28;20056;-78
2023/09/21 07:43:18;;;;;;;7.57;2.65;;;16.80;99.90;;;;;;5000920;28;20091;-81
2023/09/21 07:46:05;;;;;;;5.13;2.00;;;16.80;99.90;;;;;;5035983;28;20052;-80
2023/09/21 07:48:51;;;;;;;4.18;1.38;;;16.70;99.90;;;;;;5037094;28;20053;-80
2023/09/21 07:51:38;;;;;;;2.80;0.95;;;16.60;99.90;;;;;;5035746;28;20053;-80
2023/09/21 07:54:24;;;;;;;4.28;0.77;;;16.40;99.90;;;;;;5041270;28;20564;-87
2023/09/21 07:57:10;;;;;;;2.53;0.70;;;16.30;99.90;;;;;;5027327;28;20467;-85
2023/09/21 07:59:56;;;;;;;2.80;0.77;;;16.20;99.90;;;;;;5024199;28;20053;-78
2023/09/21 08:02:42;;;;;;;2.92;0.70;;;16.10;99.90;;;;;;5007468;28;20053;-83
2023/09/21 08:05:30;;;;;;;4.22;0.90;;;15.90;99.90;;;;;;5033794;28;20115;-80
2023/09/21 08:08:16;;;;;;;2.58;0.90;;;15.80;99.90;;;;;;5034662;28;20463;-82
2023/09/21 08:11:02;;;;;;;2.30;0.88;;;15.80;99.90;;;;;;5034288;28;20053;-82
2023/09/21 08:13:49;;;;;;;3.58;0.70;;;15.70;99.90;;;;;;5017620;28;20053;-86
2023/09/21 08:16:37;;;;;;;2.92;1.33;;;15.70;99.90;;;;;;5033893;28;20054;-83
2023/09/21 08:19:23;;;;;;;2.97;0.70;;;15.70;99.90;;;;;;5032282;28;20084;-79
2023/09/21 08:22:10;;;;;;;2.15;0.70;;;15.70;99.90;;;;;;5020227;28;20042;-85
2023/09/21 08:24:56;;;;;;;1.77;0.63;;;15.70;99.90;;;;;;5032248;28;20111;-81
2023/09/21 08:27:42;;;;;;;2.47;0.80;;;15.70;99.90;;;;;;5015003;28;20067;-82
2023/09/21 08:30:28;;;;;;;3.90;0.80;;;15.60;99.90;;;;;;5033257;28;20116;-84
2023/09/21 08:33:14;;;;;;;1.88;0.50;;;15.60;99.90;;;;;;5033042;28;20131;-79
2023/09/21 08:36:01;;;;;;;3.78;0.88;;;15.60;99.90;;;;;;5003027;28;20042;-82
2023/09/21 08:38:47;;;;;;;3.15;0.80;;;15.60;99.90;;;;;;5032939;28;20053;-83
2023/09/21 08:41:35;;;;;;;4.97;0.90;;;15.50;99.90;;;;;;5016649;28;20448;-86
2023/09/21 08:44:22;;;;;;;3.40;0.60;;;15.50;99.90;;;;;;5036363;28;20490;-81
2023/09/21 08:47:15;;;;;;;3.72;0.80;;;15.60;99.90;;;;;;5024716;28;20089;-82
2023/09/21 08:50:03;;;;;;;2.17;0.77;;;15.50;99.90;;;;;;5010527;28;20049;-81
2023/09/21 08:52:53;;;;;;;6.18;1.27;;;15.40;99.90;;;;;;5043044;28;20050;-82
2023/09/21 08:55:41;;;;;;;4.13;0.90;;;15.40;99.90;;;;;;5038853;28;20045;-84
2023/09/21 08:58:33;;;;;;;3.03;0.75;;;15.40;99.90;;;;;;5037316;28;20104;-79
2023/09/21 09:01:19;;;;;;;3.75;0.80;;;15.40;99.90;;;;;;5035159;28;20045;-81
2023/09/21 09:04:06;;;;;;;3.17;0.85;;;15.40;99.90;;;;;;5033745;28;20087;-86
2023/09/21 09:06:54;;;;;;;4.40;0.70;;;15.40;99.90;;;;;;5020137;28;20049;-80
2023/09/21 09:09:40;;;;;;;4.70;0.80;;;15.50;99.90;;;;;;5015866;28;20490;-88
2023/09/21 09:12:26;;;;;;;5.05;0.80;;;15.50;99.90;;;;;;5033278;28;20107;-81
2023/09/21 09:15:14;;;;;;;3.22;0.90;;;15.60;99.90;;;;;;5017388;28;20041;-82
2023/09/21 09:18:07;;;;;;;3.05;0.75;;;15.70;99.90;;;;;;5022763;28;20049;-87
2023/09/21 09:20:57;;;;;;;5.20;1.00;;;15.70;99.90;;;;;;5016645;28;20053;-85
2023/09/21 09:23:44;;;;;;;3.20;0.90;;;15.80;99.90;;;;;;5014716;28;20050;-81
2023/09/21 09:26:31;;;;;;;3.75;0.60;;;15.80;99.90;;;;;;5014923;28;20519;-81
2023/09/21 09:29:17;;;;;;;1.92;0.68;;;15.80;99.90;;;;;;5015856;28;20084;-84
2023/09/21 09:32:05;;;;;;;4.88;1.15;;;15.80;99.90;;;;;;5031623;28;20081;-84
2023/09/21 09:34:52;;;;;;;3.60;0.80;;;15.80;99.90;;;;;;5015451;28;20409;-84
2023/09/21 09:37:44;;;;;;;2.35;0.68;;;15.90;99.90;;;;;;5034576;28;20456;-79
2023/09/21 09:40:30;;;;;;;3.58;0.80;;;15.80;99.90;;;;;;5018656;28;20049;-79
2023/09/21 09:43:17;;;;;;;2.55;0.85;;;16.00;99.90;;;;;;5018748;28;20053;-79
2023/09/21 09:46:08;;;;;;;3.63;0.75;;;16.10;99.90;;;;;;5019874;28;20064;-86
2023/09/21 09:48:58;;;;;;;2.08;0.68;;;16.10;99.90;;;;;;5003961;28;20088;-82
2023/09/21 09:51:45;;;;;;;1.73;0.60;;;16.10;99.90;;;;;;5033321;28;20428;-82
2023/09/21 09:54:32;;;;;;;3.80;0.80;;;16.10;99.90;;;;;;5017913;28;20084;-81
2023/09/21 09:57:21;;;;;;;2.47;0.77;;;16.10;99.90;;;;;;5033246;28;20049;-81
2023/09/21 10:00:15;;;;;;;3.03;0.88;;;16.10;99.90;;;;;;5017146;28;20057;-80
2023/09/21 10:03:03;;;;;;;1.90;0.60;;;16.10;99.90;;;;;;5034072;28;20501;-81
2023/09/21 10:05:50;;;;;;;3.83;0.70;;;16.20;99.90;;;;;;5003697;28;20052;-80
2023/09/21 10:08:38;;;;;;;3.78;1.02;;;16.20;99.90;;;;;;5034155;28;20103;-82
2023/09/21 10:11:25;;;;;;;2.08;0.85;;;16.20;99.90;;;;;;5035885;28;20046;-85
2023/09/21 10:14:13;;;;;;;2.05;0.50;;;16.20;99.90;;;;;;5034892;28;20085;-83
2023/09/21 10:17:04;;;;;;;2.22;0.70;;;16.20;99.90;;;;;;5018374;28;20386;-87
2023/09/21 10:19:51;;;;;;;2.67;0.77;;;16.10;99.90;;;;;;5035607;28;20135;-82
2023/09/21 10:22:37;;;;;;;2.13;0.55;;;16.10;99.90;;;;;;5018216;28;20057;-83
2023/09/21 10:25:39;;;;;;;2.15;0.70;;;16.20;99.90;;;;;;5035046;28;20524;-85
2023/09/21 10:28:28;;;;;;;2.65;0.73;;;16.20;99.90;;;;;;5036448;28;20057;-86
2023/09/21 10:31:26;;;;;;;2.60;0.73;;;16.30;99.90;;;;;;5035075;28;20045;-87
2023/09/21 10:34:18;;;;;;;2.53;0.63;;;16.30;99.90;;;;;;5035318;28;20417;-86
2023/09/21 10:37:10;;;;;;;1.80;0.70;;;16.30;99.90;;;;;;5004031;28;20123;-90
2023/09/21 10:39:58;;;;;;;3.88;0.80;;;16.30;99.90;;;;;;5034595;28;20061;-83
2023/09/21 10:42:44;;;;;;;2.58;0.80;;;16.40;99.90;;;;;;5033881;28;20050;-84
2023/09/21 10:45:53;;;;;;;1.80;0.63;;;16.40;99.90;;;;;;5017190;28;20413;-87
2023/09/21 10:48:40;;;;;;;1.92;0.57;;;16.50;99.90;;;;;;5016889;28;20185;-81
2023/09/21 10:51:28;;;;;;;1.45;0.55;;;16.50;99.90;;;;;;5017600;28;20721;-84
2023/09/21 10:54:17;;;;;;;3.78;0.73;;;16.60;99.90;;;;;;5033840;28;20065;-79
2023/09/21 10:57:04;;;;;;;2.15;0.50;;;16.50;99.90;;;;;;5034591;28;20051;-87
2023/09/21 10:59:52;;;;;;;1.77;0.60;;;16.50;99.90;;;;;;5034109;28;20053;-85
2023/09/21 11:02:41;;;;;;;3.20;0.65;;;16.50;99.90;;;;;;5003763;28;20049;-85
2023/09/21 11:05:27;;;;;;;3.17;0.70;;;16.50;99.90;;;;;;5034779;28;20050;-93
2023/09/21 11:08:15;;;;;;;1.55;0.60;;;16.50;99.90;;;;;;5034404;28;20050;-83
2023/09/21 11:11:03;;;;;;;1.58;0.60;;;16.50;99.90;;;;;;5006103;28;20049;-80
2023/09/21 11:13:51;;;;;;;1.75;0.60;;;16.40;99.90;;;;;;5033957;28;20493;-91
2023/09/21 11:16:37;;;;;;;1.95;0.50;;;16.30;99.90;;;;;;5034032;28;20057;-85
2023/09/21 11:19:23;;;;;;;1.83;0.60;;;16.30;99.90;;;;;;5016503;28;20084;-83
2023/09/21 11:22:10;;;;;;;1.55;0.55;;;16.30;99.90;;;;;;5033978;28;20049;-84
2023/09/21 11:24:57;;;;;;;1.55;0.70;;;16.30;99.90;;;;;;5033884;28;20081;-85
2023/09/21 11:27:45;;;;;;;2.80;0.55;;;16.20;99.90;;;;;;5017499;28;20440;-84
2023/09/21 11:30:36;;;;;;;2.70;0.90;;;16.20;99.90;;;;;;5017908;28;20053;-86
2023/09/21 11:33:22;;;;;;;2.22;0.70;;;16.20;99.90;;;;;;5018191;28;20073;-92
2023/09/21 11:36:09;;;;;;;2.95;0.80;;;16.20;99.90;;;;;;5018289;28;20049;-82
2023/09/21 11:38:55;;;;;;;2.78;0.90;;;16.20;99.90;;;;;;5037462;28;20059;-84
2023/09/21 11:41:41;;;;;;;2.40;0.73;;;16.30;99.90;;;;;;5021995;28;20053;-81
2023/09/21 11:44:28;;;;;;;2.28;0.73;;;16.40;99.90;;;;;;5023368;28;20639;-80
2023/09/21 11:47:15;;;;;;;2.50;0.90;;;16.50;99.90;;;;;;5043226;28;20120;-79
2023/09/21 11:50:03;;;;;;;3.13;0.68;;;16.50;99.90;;;;;;5026564;28;20072;-80
2023/09/21 11:52:56;;;;;;;1.90;0.80;;;16.60;99.90;;;;;;5043392;28;20058;-80
2023/09/21 11:55:43;;;;;;;3.03;0.70;;;16.60;99.90;;;;;;5020625;28;20057;-81
2023/09/21 11:58:32;;;;;;;3.60;0.93;;;16.40;99.90;;;;;;5041608;28;20132;-82
2023/09/21 12:01:22;;;;;;;2.72;0.85;;;16.40;99.90;;;;;;5020329;28;20497;-81
2023/09/21 12:04:08;;;;;;;2.15;0.75;;;16.30;99.90;;;;;;5039922;28;20056;-82
2023/09/21 12:06:59;;;;;;;3.88;1.05;;;16.20;99.90;;;;;;5039522;28;20076;-85
2023/09/21 12:09:45;;;;;;;3.38;1.08;;;16.20;99.90;;;;;;5036648;28;20084;-86
2023/09/21 12:12:32;;;;;;;3.40;1.00;;;16.20;99.90;;;;;;5036523;28;20128;-80
2023/09/21 12:15:18;;;;;;;5.45;1.02;;;16.20;99.90;;;;;;5035540;28;20045;-82
2023/09/21 12:18:05;;;;;;;3.00;0.80;;;16.30;99.90;;;;;;5037741;28;20060;-81
2023/09/21 12:20:56;;;;;;;2.25;0.90;;;16.30;99.90;;;;;;5040559;28;20057;-79
2023/09/21 12:23:42;;;;;;;2.80;0.93;;;16.30;99.90;;;;;;5040941;28;20053;-79
2023/09/21 12:26:28;;;;;;;2.45;0.75;;;16.50;99.90;;;;;;5039827;28;20075;-80
2023/09/21 12:29:18;;;;;;;1.70;0.80;;;16.50;99.90;;;;;;5018992;28;20683;-80
2023/09/21 12:32:04;;;;;;;2.70;0.82;;;16.60;99.90;;;;;;5022068;28;20045;-79
2023/09/21 12:34:51;;;;;;;3.55;0.90;;;16.70;99.90;;;;;;5007316;28;20045;-79
2023/09/21 12:37:39;;;;;;;1.55;0.50;;;16.80;99.90;;;;;;5015621;28;20049;-79
2023/09/21 12:40:26;;;;;;;2.72;0.80;;;16.80;99.90;;;;;;5034139;28;20050;-85
2023/09/21 12:43:12;;;;;;;1.80;0.80;;;16.90;99.90;;;;;;5017977;28;20490;-80
2023/09/21 12:45:59;;;;;;;1.23;0.50;;;17.00;99.90;;;;;;5033588;28;20148;-86
2023/09/21 12:48:45;;;;;;;2.17;0.75;;;17.00;99.90;;;;;;5035993;28;20077;-82
2023/09/21 12:51:33;;;;;;;1.77;0.73;;;16.90;99.90;;;;;;5035653;28;20038;-95
2023/09/21 12:54:19;;;;;;;2.25;0.73;;;16.80;99.90;;;;;;5033360;28;20045;-96
2023/09/21 12:57:05;;;;;;;3.13;1.30;;;16.70;99.90;;;;;;5032554;28;20046;-96
2023/09/21 12:59:51;;;;;;;3.05;0.98;;;16.80;99.90;;;;;;5015821;28;20045;-93
2023/09/21 13:02:38;;;;;;;1.00;0.60;;;16.70;99.90;;;;;;5032827;28;20056;-96
2023/09/21 13:05:24;;;;;;;1.40;0.65;;;16.70;99.90;;;;;;5032603;28;20568;-94
2023/09/21 13:08:12;;;;;;;2.17;0.70;;;16.70;99.90;;;;;;5015351;28;20151;-96
2023/09/21 13:10:58;;;;;;;1.58;0.80;;;16.70;99.90;;;;;;5002542;28;20053;-93
2023/09/21 13:13:46;;;;;;;1.85;0.60;;;16.70;99.90;;;;;;5036843;28;20072;-95
2023/09/21 13:16:32;;;;;;;2.90;0.80;;;16.80;99.90;;;;;;5040201;28;20045;-90
2023/09/21 13:19:18;;;;;;;1.45;0.52;;;16.80;99.90;;;;;;5007803;28;20116;-94
2023/09/21 13:22:04;;;;;;;2.65;0.60;;;16.80;99.90;;;;;;5021512;28;20133;-88
2023/09/21 13:24:51;;;;;;;2.47;0.90;;;16.90;99.90;;;;;;5016513;28;20482;-93
2023/09/21 13:27:38;;;;;;;2.70;1.08;;;16.80;99.90;;;;;;5036145;28;20060;-85
2023/09/21 13:30:24;;;;;;;2.58;0.90;;;16.70;99.90;;;;;;5024893;28;20045;-86
2023/09/21 13:33:10;;;;;;;1.80;0.73;;;16.60;99.90;;;;;;5026948;28;20057;-85
2023/09/21 13:35:57;;;;;;;1.73;0.60;;;16.60;99.90;;;;;;5047663;28;20095;-84
2023/09/21 13:38:46;;;;;;;1.40;0.40;;;16.50;99.90;;;;;;5033785;28;20064;-81
2023/09/21 13:41:33;;;;;;;3.40;1.25;;;16.50;99.90;;;;;;5052675;28;20045;-81
2023/09/21 13:44:20;;;;;;;2.58;0.80;;;16.50;99.90;;;;;;5042563;28;20049;-83
2023/09/21 13:47:06;;;;;;;3.78;1.00;;;16.60;99.90;;;;;;5022874;28;20119;-84
2023/09/21 13:49:53;;;;;;;2.15;0.70;;;16.70;99.90;;;;;;5021816;28;20052;-88
2023/09/21 15:59:18;;;;;;;2.45;1.02;;;16.40;99.90;;;;;;5149828;27;20393;-75
2023/09/21 16:02:05;;;;;;;2.45;0.90;;;16.50;99.90;;;;;;5146486;27;20057;-74
2023/09/21 16:04:51;;;;;;;2.58;0.88;;;16.40;99.90;;;;;;5133582;27;20059;-74
2023/09/21 16:07:37;;;;;;;2.72;0.95;;;16.40;99.90;;;;;;5147197;27;20055;-75
2023/09/21 16:10:23;;;;;;;2.35;0.70;;;16.30;99.90;;;;;;5148827;27;20047;-75
2023/09/21 16:13:10;;;;;;;3.55;0.90;;;16.20;99.90;;;;;;5148626;27;20513;-74
2023/09/21 16:15:56;;;;;;;1.73;0.68;;;16.20;99.90;;;;;;5148378;27;20081;-75
2023/09/21 16:18:42;;;;;;;2.72;1.02;;;16.10;99.90;;;;;;5147681;27;20078;-74
2023/09/21 16:21:38;;;;;;;2.70;0.82;;;16.10;99.90;;;;;;5134095;27;20797;-75
2023/09/21 16:24:24;;;;;;;4.93;1.23;;;16.10;99.90;;;;;;5149491;27;20086;-74
2023/09/21 16:27:10;;;;;;;6.35;1.50;;;16.10;99.90;;;;;;5148343;27;20050;-74
2023/09/21 16:29:56;;;;;;;3.95;1.15;;;16.10;99.90;;;;;;5129881;27;20051;-82
2023/09/21 16:32:42;;;;;;;4.90;0.80;;;16.10;99.90;;;;;;5147785;27;20061;-78
2023/09/21 16:35:28;;;;;;;6.25;1.00;;;16.00;99.90;;;;;;5148299;27;20042;-80
2023/09/21 16:38:14;;;;;;;2.33;0.80;;;16.00;99.90;;;;;;5147160;27;20104;-81